Time,TemperatureF,DewpointF,PressureIn,WindDirection,WindDirectionDegrees,WindSpeedMPH,WindSpeedGustMPH,Humidity,HourlyPrecipIn,Conditions,Clouds,dailyrainin,SoftwareType,DateUTC
2013-09-01 00:01:00,73.3,72.4,29.84,SW,214,0.0,0.0,97,0.00,,,0.00,VWS V14.01,2013-09-01 04:01:00,
2013-09-01 00:06:00,73.3,72.4,29.84,SW,215,0.0,0.0,97,0.00,,,0.00,VWS V14.01,2013-09-01 04:06:00,
2013-09-01 00:11:00,73.4,72.5,29.84,SW,214,0.0,0.0,97,0.00,,,0.00,VWS V14.01,2013-09-01 04:11:00,
2013-09-01 00:16:00,73.4,72.5,29.84,SW,214,0.0,0.0,97,0.00,,,0.00,VWS V14.01,2013-09-01 04:16:00,
2013-09-01 00:21:00,73.4,72.5,29.83,SW,214,0.0,0.0,97,0.00,,,0.00,VWS V14.01,2013-09-01 04:21:00,
2013-09-01 00:26:00,73.3,72.1,29.83,ESE,102,0.0,0.0,96,0.00,,,0.00,VWS V14.01,2013-09-01 04:26:00,
2013-09-01 00:31:00,73.2,72.3,29.83,East,100,0.0,0.0,97,0.00,,,0.00,VWS V14.01,2013-09-01 04:31:00,
2013-09-01 00:36:00,73.1,72.2,29.83,ESE,102,0.0,0.0,97,0.00,,,0.00,VWS V14.01,2013-09-01 04:36:00,
2013-09-01 00:41:00,72.9,71.7,29.83,East,101,0.0,1.0,96,0.00,,,0.00,VWS V14.01,2013-09-01 04:41:00,
2013-09-01 00:46:00,72.7,71.8,29.83,NW,304,2.0,2.0,97,0.00,,,0.00,VWS V14.01,2013-09-01 04:46:00,
2013-09-01 00:51:00,72.8,71.9,29.83,WSW,240,0.0,2.0,97,0.00,,,0.00,VWS V14.01,2013-09-01 04:51:00,
2013-09-01 00:56:00,72.8,71.9,29.83,SW,236,2.0,2.0,97,0.00,,,0.00,VWS V14.01,2013-09-01 04:56:00,
2013-09-01 01:01:00,72.9,72.0,29.84,WSW,242,3.0,4.0,97,0.00,,,0.00,VWS V14.01,2013-09-01 05:01:00,
2013-09-01 01:06:00,72.9,72.0,29.84,SW,221,2.0,6.0,97,0.00,,,0.00,VWS V14.01,2013-09-01 05:06:00,
2013-09-01 01:11:00,72.9,72.0,29.85,South,183,2.0,4.0,97,0.00,,,0.00,VWS V14.01,2013-09-01 05:11:00,
2013-09-01 01:16:00,72.8,71.9,29.84,WSW,239,2.0,4.0,97,0.00,,,0.00,VWS V14.01,2013-09-01 05:16:00,
2013-09-01 01:21:00,72.8,71.9,29.84,WSW,239,0.0,2.0,97,0.00,,,0.00,VWS V14.01,2013-09-01 05:21:00,
2013-09-01 01:26:00,72.8,71.9,29.85,SW,232,0.0,1.0,97,0.00,,,0.00,VWS V14.01,2013-09-01 05:26:00,
2013-09-01 01:31:00,72.7,71.8,29.85,SW,219,0.0,0.0,97,0.00,,CLR,0.00,VWS V14.01,2013-09-01 05:31:00,
2013-09-01 01:36:00,72.7,71.8,29.85,WSW,248,0.0,0.0,97,0.00,,CLR,0.00,VWS V14.01,2013-09-01 05:36:00,
2013-09-01 01:41:00,72.7,71.8,29.85,WNW,297,1.0,2.0,97,0.00,,CLR,0.00,VWS V14.01,2013-09-01 05:41:00,
2013-09-01 01:46:00,72.6,71.7,29.85,WNW,297,0.0,0.0,97,0.00,,,0.00,VWS V14.01,2013-09-01 05:46:00,
2013-09-01 01:51:00,72.6,71.7,29.85,SW,214,0.0,1.0,97,0.00,,,0.00,VWS V14.01,2013-09-01 05:51:00,
2013-09-01 01:56:00,72.5,71.6,29.85,SW,231,1.0,1.0,97,0.00,,,0.00,VWS V14.01,2013-09-01 05:56:00,
2013-09-01 02:01:00,72.5,71.6,29.85,WNW,297,0.0,2.0,97,0.00,,,0.00,VWS V14.01,2013-09-01 06:01:00,
2013-09-01 02:06:00,72.4,71.5,29.85,WNW,290,0.0,0.0,97,0.00,,,0.00,VWS V14.01,2013-09-01 06:06:00,
2013-09-01 02:11:00,72.2,71.3,29.85,WNW,291,0.0,0.0,97,0.00,,,0.00,VWS V14.01,2013-09-01 06:11:00,
2013-09-01 02:16:00,72.2,71.3,29.85,WNW,288,0.0,0.0,97,0.00,,,0.00,VWS V14.01,2013-09-01 06:16:00,
2013-09-01 02:21:00,72.1,71.2,29.85,WNW,288,0.0,0.0,97,0.00,,,0.00,VWS V14.01,2013-09-01 06:21:00,
2013-09-01 02:26:00,72.1,71.2,29.85,WNW,289,0.0,0.0,97,0.00,,,0.00,VWS V14.01,2013-09-01 06:26:00,
2013-09-01 02:31:00,71.9,71.0,29.84,WNW,290,0.0,0.0,97,0.00,,CLR,0.00,VWS V14.01,2013-09-01 06:31:00,
2013-09-01 02:36:00,71.8,70.9,29.84,WNW,290,0.0,0.0,97,0.00,,CLR,0.00,VWS V14.01,2013-09-01 06:36:00,
2013-09-01 02:41:00,71.8,70.9,29.84,West,277,0.0,0.0,97,0.00,,CLR,0.00,VWS V14.01,2013-09-01 06:41:00,
2013-09-01 02:46:00,71.7,70.8,29.84,West,277,2.0,2.0,97,0.00,,,0.00,VWS V14.01,2013-09-01 06:46:00,
2013-09-01 02:51:00,71.6,70.7,29.84,WNW,285,0.0,0.0,97,0.00,,,0.00,VWS V14.01,2013-09-01 06:51:00,
2013-09-01 02:56:00,71.6,70.7,29.84,West,276,1.0,2.0,97,0.00,,,0.00,VWS V14.01,2013-09-01 06:56:00,
2013-09-01 03:01:00,71.5,70.9,29.84,WSW,255,1.0,2.0,98,0.00,,BKN043,0.00,VWS V14.01,2013-09-01 07:01:00,
2013-09-01 03:06:00,71.4,70.8,29.84,WNW,294,1.0,2.0,98,0.00,,BKN043,0.00,VWS V14.01,2013-09-01 07:06:00,
2013-09-01 03:11:00,71.4,70.5,29.83,WSW,257,0.0,2.0,97,0.00,,BKN043,0.00,VWS V14.01,2013-09-01 07:11:00,
2013-09-01 03:16:00,71.3,70.4,29.83,West,267,0.0,2.0,97,0.00,,BKN043,0.00,VWS V14.01,2013-09-01 07:16:00,
2013-09-01 03:21:00,71.1,70.2,29.83,SW,221,0.0,1.0,97,0.00,,BKN043,0.00,VWS V14.01,2013-09-01 07:21:00,
2013-09-01 03:26:00,71.1,70.2,29.83,SW,233,0.0,0.0,97,0.00,,BKN043,0.00,VWS V14.01,2013-09-01 07:26:00,
2013-09-01 03:31:00,70.9,70.3,29.83,SW,215,1.0,1.0,98,0.00,,SCT045,0.00,VWS V14.01,2013-09-01 07:31:00,
2013-09-01 03:36:00,70.9,70.3,29.83,SSE,153,0.0,0.0,98,0.00,,SCT045,0.00,VWS V14.01,2013-09-01 07:36:00,
2013-09-01 03:41:00,70.9,70.3,29.83,SSE,154,0.0,0.0,98,0.00,,SCT045,0.00,VWS V14.01,2013-09-01 07:41:00,
2013-09-01 03:46:00,70.8,70.2,29.83,SSE,159,2.0,2.0,98,0.00,,CLR,0.00,VWS V14.01,2013-09-01 07:46:00,
2013-09-01 03:51:00,70.7,70.1,29.82,SE,135,1.0,2.0,98,0.00,,CLR,0.00,VWS V14.01,2013-09-01 07:51:00,
2013-09-01 03:56:00,70.7,70.1,29.82,SSW,207,1.0,1.0,98,0.00,,CLR,0.00,VWS V14.01,2013-09-01 07:56:00,
2013-09-01 04:01:00,70.7,70.1,29.83,SW,226,1.0,2.0,98,0.00,,CLR,0.00,VWS V14.01,2013-09-01 08:01:00,
2013-09-01 04:06:00,70.7,70.1,29.83,SW,214,0.0,0.0,98,0.00,,CLR,0.00,VWS V14.01,2013-09-01 08:06:00,
2013-09-01 04:11:00,70.7,70.1,29.83,SW,226,0.0,1.0,98,0.00,,CLR,0.00,VWS V14.01,2013-09-01 08:11:00,
2013-09-01 04:16:00,70.7,70.1,29.83,SSW,205,0.0,3.0,98,0.00,,CLR,0.00,VWS V14.01,2013-09-01 08:16:00,
2013-09-01 04:21:00,70.6,70.0,29.83,WSW,250,1.0,1.0,98,0.00,,CLR,0.00,VWS V14.01,2013-09-01 08:21:00,
2013-09-01 04:26:00,70.6,70.0,29.83,SSW,197,1.0,1.0,98,0.00,,CLR,0.00,VWS V14.01,2013-09-01 08:26:00,
2013-09-01 04:31:00,70.5,69.6,29.82,SW,217,1.0,3.0,97,0.00,,CLR,0.00,VWS V14.01,2013-09-01 08:31:00,
2013-09-01 04:36:00,70.5,69.6,29.83,WSW,242,1.0,1.0,97,0.00,,CLR,0.00,VWS V14.01,2013-09-01 08:36:00,
2013-09-01 04:41:00,70.6,69.7,29.83,WSW,250,0.0,1.0,97,0.00,,CLR,0.00,VWS V14.01,2013-09-01 08:41:00,
2013-09-01 04:46:00,70.5,69.6,29.83,WSW,255,0.0,0.0,97,0.00,,CLR,0.00,VWS V14.01,2013-09-01 08:46:00,
2013-09-01 04:51:00,70.5,69.6,29.83,SW,228,1.0,3.0,97,0.00,,CLR,0.00,VWS V14.01,2013-09-01 08:51:00,
2013-09-01 04:56:00,70.4,69.5,29.82,South,190,1.0,3.0,97,0.00,,CLR,0.00,VWS V14.01,2013-09-01 08:56:00,
2013-09-01 05:01:00,70.3,69.4,29.83,South,176,2.0,2.0,97,0.00,,CLR,0.00,VWS V14.01,2013-09-01 09:01:00,
2013-09-01 05:06:00,70.2,69.3,29.83,SSW,212,1.0,2.0,97,0.00,,CLR,0.00,VWS V14.01,2013-09-01 09:06:00,
2013-09-01 05:11:00,70.2,69.3,29.83,WSW,248,0.0,2.0,97,0.00,,CLR,0.00,VWS V14.01,2013-09-01 09:11:00,
2013-09-01 05:16:00,70.2,69.3,29.83,SW,226,1.0,2.0,97,0.00,,CLR,0.00,VWS V14.01,2013-09-01 09:16:00,
2013-09-01 05:21:00,70.1,69.2,29.83,SW,226,0.0,0.0,97,0.00,,CLR,0.00,VWS V14.01,2013-09-01 09:21:00,
2013-09-01 05:26:00,70.1,69.2,29.83,SW,217,1.0,1.0,97,0.00,,CLR,0.00,VWS V14.01,2013-09-01 09:26:00,
2013-09-01 05:31:00,70.1,69.2,29.83,SW,217,0.0,0.0,97,0.00,,CLR,0.00,VWS V14.01,2013-09-01 09:31:00,
2013-09-01 05:36:00,70.1,69.2,29.83,SW,217,0.0,1.0,97,0.00,,CLR,0.00,VWS V14.01,2013-09-01 09:36:00,
2013-09-01 05:41:00,70.1,69.2,29.83,WSW,242,0.0,1.0,97,0.00,,CLR,0.00,VWS V14.01,2013-09-01 09:41:00,
2013-09-01 05:46:00,70.1,69.2,29.83,SW,214,0.0,1.0,97,0.00,,,0.00,VWS V14.01,2013-09-01 09:46:00,
2013-09-01 05:51:00,70.0,69.1,29.83,SW,214,0.0,0.0,97,0.00,,,0.00,VWS V14.01,2013-09-01 09:51:00,
2013-09-01 05:56:00,70.0,69.1,29.83,SW,214,0.0,0.0,97,0.00,,,0.00,VWS V14.01,2013-09-01 09:56:00,
2013-09-01 06:01:00,69.9,69.0,29.83,SSW,208,0.0,0.0,97,0.00,,,0.00,VWS V14.01,2013-09-01 10:01:00,
2013-09-01 06:06:00,69.8,68.9,29.83,SSW,207,0.0,0.0,97,0.00,,,0.00,VWS V14.01,2013-09-01 10:06:00,
2013-09-01 06:11:00,69.7,68.8,29.84,SSW,207,0.0,0.0,97,0.00,,,0.00,VWS V14.01,2013-09-01 10:11:00,
2013-09-01 06:16:00,69.6,68.7,29.83,SSW,208,0.0,0.0,97,0.00,,,0.00,VWS V14.01,2013-09-01 10:16:00,
2013-09-01 06:21:00,69.6,68.7,29.83,SSW,208,0.0,0.0,97,0.00,,,0.00,VWS V14.01,2013-09-01 10:21:00,
2013-09-01 06:26:00,69.5,68.6,29.83,SSW,208,0.0,0.0,97,0.00,,,0.00,VWS V14.01,2013-09-01 10:26:00,
2013-09-01 06:31:00,69.4,68.5,29.84,SW,233,0.0,1.0,97,0.00,,SCT120,0.00,VWS V14.01,2013-09-01 10:31:00,
2013-09-01 06:36:00,69.4,68.5,29.84,SW,214,0.0,2.0,97,0.00,,SCT120,0.00,VWS V14.01,2013-09-01 10:36:00,
2013-09-01 06:41:00,69.3,68.4,29.84,SW,236,0.0,2.0,97,0.00,,SCT120,0.00,VWS V14.01,2013-09-01 10:41:00,
2013-09-01 06:46:00,69.3,68.4,29.84,SW,231,3.0,4.0,97,0.00,,CLR,0.00,VWS V14.01,2013-09-01 10:46:00,
2013-09-01 06:51:00,69.2,68.3,29.84,SW,233,0.0,2.0,97,0.00,,CLR,0.00,VWS V14.01,2013-09-01 10:51:00,
2013-09-01 06:56:00,69.2,68.3,29.85,West,265,1.0,2.0,97,0.00,,CLR,0.00,VWS V14.01,2013-09-01 10:56:00,
2013-09-01 07:01:00,69.1,68.2,29.85,SW,219,1.0,3.0,97,0.00,,CLR,0.00,VWS V14.01,2013-09-01 11:01:00,
2013-09-01 07:06:00,69.0,67.8,29.85,SW,229,1.0,4.0,96,0.00,,CLR,0.00,VWS V14.01,2013-09-01 11:06:00,
2013-09-01 07:11:00,69.0,67.8,29.85,SW,235,3.0,3.0,96,0.00,,CLR,0.00,VWS V14.01,2013-09-01 11:11:00,
2013-09-01 07:16:00,69.0,67.8,29.85,West,266,3.0,5.0,96,0.00,,CLR,0.00,VWS V14.01,2013-09-01 11:16:00,
2013-09-01 07:21:00,69.0,67.8,29.85,SSW,199,3.0,5.0,96,0.00,,CLR,0.00,VWS V14.01,2013-09-01 11:21:00,
2013-09-01 07:26:00,68.9,67.7,29.85,WSW,249,4.0,6.0,96,0.00,,CLR,0.00,VWS V14.01,2013-09-01 11:26:00,
2013-09-01 07:31:00,68.9,67.7,29.86,SW,229,4.0,4.0,96,0.00,,CLR,0.00,VWS V14.01,2013-09-01 11:31:00,
2013-09-01 07:36:00,69.0,67.5,29.85,WSW,252,0.0,2.0,95,0.00,,CLR,0.00,VWS V14.01,2013-09-01 11:36:00,
2013-09-01 07:41:00,68.9,67.4,29.85,SW,219,3.0,3.0,95,0.00,,CLR,0.00,VWS V14.01,2013-09-01 11:41:00,
2013-09-01 07:46:00,69.0,67.5,29.85,WSW,257,1.0,4.0,95,0.00,,CLR,0.00,VWS V14.01,2013-09-01 11:46:00,
2013-09-01 07:51:00,69.0,67.5,29.85,SSW,203,0.0,5.0,95,0.00,,CLR,0.00,VWS V14.01,2013-09-01 11:51:00,
2013-09-01 07:56:00,69.0,67.5,29.85,SSW,198,0.0,2.0,95,0.00,,CLR,0.00,VWS V14.01,2013-09-01 11:56:00,
2013-09-01 08:01:00,69.1,67.3,29.85,SW,221,1.0,4.0,94,0.00,,CLR,0.00,VWS V14.01,2013-09-01 12:01:00,
2013-09-01 08:06:00,69.2,67.7,29.85,SSW,207,2.0,4.0,95,0.00,,CLR,0.00,VWS V14.01,2013-09-01 12:06:00,
2013-09-01 08:11:00,69.6,67.8,29.85,SSE,160,1.0,3.0,94,0.00,,CLR,0.00,VWS V14.01,2013-09-01 12:11:00,
2013-09-01 08:16:00,70.1,68.3,29.85,SW,224,3.0,4.0,94,0.00,,CLR,0.00,VWS V14.01,2013-09-01 12:16:00,
2013-09-01 08:21:00,70.6,68.8,29.85,SW,224,4.0,5.0,94,0.00,,CLR,0.00,VWS V14.01,2013-09-01 12:21:00,
2013-09-01 08:26:00,70.9,68.5,29.85,WNW,290,3.0,5.0,92,0.00,,CLR,0.00,VWS V14.01,2013-09-01 12:26:00,
2013-09-01 08:31:00,70.9,68.2,29.86,WSW,243,3.0,7.0,91,0.00,,CLR,0.00,VWS V14.01,2013-09-01 12:31:00,
2013-09-01 08:36:00,70.9,68.2,29.86,SW,231,6.0,7.0,91,0.00,,CLR,0.00,VWS V14.01,2013-09-01 12:36:00,
2013-09-01 08:41:00,70.9,68.2,29.86,SW,226,3.0,6.0,91,0.00,,CLR,0.00,VWS V14.01,2013-09-01 12:41:00,
2013-09-01 08:46:00,70.8,67.7,29.86,SW,214,2.0,7.0,90,0.00,,CLR,0.00,VWS V14.01,2013-09-01 12:46:00,
2013-09-01 08:51:00,70.7,67.6,29.86,SSW,195,4.0,5.0,90,0.00,,CLR,0.00,VWS V14.01,2013-09-01 12:51:00,
2013-09-01 08:56:00,70.7,67.6,29.86,SE,146,4.0,5.0,90,0.00,,CLR,0.00,VWS V14.01,2013-09-01 12:56:00,
2013-09-01 09:01:00,70.6,67.8,29.86,WSW,255,2.0,4.0,91,0.00,,CLR,0.00,VWS V14.01,2013-09-01 13:01:00,
2013-09-01 09:06:00,70.7,67.9,29.86,SW,234,3.0,3.0,91,0.00,,CLR,0.00,VWS V14.01,2013-09-01 13:06:00,
2013-09-01 09:11:00,70.7,67.6,29.86,WSW,253,0.0,6.0,90,0.00,,CLR,0.00,VWS V14.01,2013-09-01 13:11:00,
2013-09-01 09:16:00,70.7,67.6,29.86,SSW,200,1.0,4.0,90,0.00,,CLR,0.00,VWS V14.01,2013-09-01 13:16:00,
2013-09-01 09:21:00,70.7,67.3,29.86,WSW,246,3.0,6.0,89,0.00,,CLR,0.00,VWS V14.01,2013-09-01 13:21:00,
2013-09-01 09:26:00,70.8,67.4,29.85,WSW,239,2.0,3.0,89,0.00,,CLR,0.00,VWS V14.01,2013-09-01 13:26:00,
2013-09-01 09:31:00,71.0,67.6,29.85,South,174,2.0,4.0,89,0.00,,CLR,0.00,VWS V14.01,2013-09-01 13:31:00,
2013-09-01 09:36:00,71.2,67.8,29.84,SSW,193,2.0,4.0,89,0.00,,CLR,0.00,VWS V14.01,2013-09-01 13:36:00,
2013-09-01 09:41:00,71.5,67.8,29.85,South,188,4.0,4.0,88,0.00,,CLR,0.00,VWS V14.01,2013-09-01 13:41:00,
2013-09-01 09:46:00,72.0,68.3,29.85,SE,142,6.0,7.0,88,0.00,,CLR,0.00,VWS V14.01,2013-09-01 13:46:00,
2013-09-01 09:51:00,72.4,68.3,29.85,SSW,205,4.0,5.0,87,0.00,,CLR,0.00,VWS V14.01,2013-09-01 13:51:00,
2013-09-01 09:56:00,72.5,68.1,29.85,SE,141,5.0,7.0,86,0.00,,CLR,0.00,VWS V14.01,2013-09-01 13:56:00,
2013-09-01 10:01:00,72.5,68.1,29.85,South,172,1.0,4.0,86,0.00,,CLR,0.00,VWS V14.01,2013-09-01 14:01:00,
2013-09-01 10:06:00,72.5,68.1,29.85,South,170,5.0,6.0,86,0.00,,CLR,0.00,VWS V14.01,2013-09-01 14:06:00,
2013-09-01 10:11:00,72.6,68.2,29.84,WSW,246,7.0,8.0,86,0.00,,CLR,0.00,VWS V14.01,2013-09-01 14:11:00,
2013-09-01 10:16:00,73.5,68.7,29.85,SSE,157,4.0,5.0,85,0.00,,CLR,0.00,VWS V14.01,2013-09-01 14:16:00,
2013-09-01 10:21:00,74.1,68.6,29.85,SSE,158,2.0,6.0,83,0.00,,CLR,0.00,VWS V14.01,2013-09-01 14:21:00,
2013-09-01 10:26:00,74.0,68.5,29.85,South,191,3.0,6.0,83,0.00,,CLR,0.00,VWS V14.01,2013-09-01 14:26:00,
2013-09-01 10:31:00,74.1,68.6,29.85,SW,231,5.0,6.0,83,0.00,,CLR,0.00,VWS V14.01,2013-09-01 14:31:00,
2013-09-01 10:36:00,74.4,68.9,29.85,SSW,210,1.0,4.0,83,0.00,,CLR,0.00,VWS V14.01,2013-09-01 14:36:00,
2013-09-01 10:41:00,75.3,69.1,29.85,SW,229,4.0,7.0,81,0.00,,CLR,0.00,VWS V14.01,2013-09-01 14:41:00,
2013-09-01 10:46:00,75.1,68.5,29.85,SSW,198,7.0,7.0,80,0.00,,SCT016,0.00,VWS V14.01,2013-09-01 14:46:00,
2013-09-01 10:51:00,75.1,68.5,29.86,SW,223,8.0,8.0,80,0.00,,SCT016,0.00,VWS V14.01,2013-09-01 14:51:00,
2013-09-01 10:56:00,75.0,68.4,29.85,South,180,3.0,7.0,80,0.00,,SCT016,0.00,VWS V14.01,2013-09-01 14:56:00,
2013-09-01 11:01:00,75.6,69.0,29.85,WSW,238,3.0,5.0,80,0.00,,SCT016,0.00,VWS V14.01,2013-09-01 15:01:00,
2013-09-01 11:06:00,76.1,68.8,29.85,SW,235,5.0,5.0,78,0.00,,SCT016,0.00,VWS V14.01,2013-09-01 15:06:00,
2013-09-01 11:11:00,76.8,69.4,29.85,NW,307,3.0,6.0,78,0.00,,SCT016,0.00,VWS V14.01,2013-09-01 15:11:00,
2013-09-01 11:16:00,76.8,68.3,29.85,SSW,212,6.0,8.0,75,0.00,,SCT016,0.00,VWS V14.01,2013-09-01 15:16:00,
2013-09-01 11:21:00,76.3,68.9,29.85,South,181,5.0,6.0,78,0.00,,SCT016,0.00,VWS V14.01,2013-09-01 15:21:00,
2013-09-01 11:26:00,76.2,68.5,29.85,WNW,283,2.0,7.0,77,0.00,,SCT016,0.00,VWS V14.01,2013-09-01 15:26:00,
2013-09-01 11:31:00,75.9,68.2,29.85,West,279,3.0,6.0,77,0.00,,SCT016,0.00,VWS V14.01,2013-09-01 15:31:00,
2013-09-01 11:36:00,76.1,68.8,29.85,WSW,246,3.0,5.0,78,0.00,,SCT016,0.00,VWS V14.01,2013-09-01 15:36:00,
2013-09-01 11:41:00,76.4,69.0,29.85,SW,225,8.0,9.0,78,0.00,,SCT016,0.00,VWS V14.01,2013-09-01 15:41:00,
2013-09-01 11:46:00,76.2,68.8,29.85,WSW,248,5.0,5.0,78,0.00,,BKN020,0.00,VWS V14.01,2013-09-01 15:46:00,
2013-09-01 11:51:00,76.5,69.1,29.85,SW,226,6.0,8.0,78,0.00,,BKN020,0.00,VWS V14.01,2013-09-01 15:51:00,
2013-09-01 11:56:00,76.7,68.9,29.85,WSW,257,4.0,5.0,77,0.00,,BKN020,0.00,VWS V14.01,2013-09-01 15:56:00,
2013-09-01 12:01:00,77.2,69.4,29.85,SW,228,8.0,10.0,77,0.00,,SCT020,0.00,VWS V14.01,2013-09-01 16:01:00,
2013-09-01 12:06:00,77.6,69.4,29.85,SW,214,8.0,9.0,76,0.00,,SCT020,0.00,VWS V14.01,2013-09-01 16:06:00,
2013-09-01 12:11:00,78.0,69.4,29.85,SSW,195,2.0,8.0,75,0.00,,SCT020,0.00,VWS V14.01,2013-09-01 16:11:00,
2013-09-01 12:16:00,78.1,69.1,29.85,South,173,2.0,7.0,74,0.00,,SCT020,0.00,VWS V14.01,2013-09-01 16:16:00,
2013-09-01 12:21:00,77.9,69.3,29.85,SW,235,2.0,6.0,75,0.00,,SCT020,0.00,VWS V14.01,2013-09-01 16:21:00,
2013-09-01 12:26:00,77.9,69.7,29.85,SW,219,6.0,7.0,76,0.00,,SCT020,0.00,VWS V14.01,2013-09-01 16:26:00,
2013-09-01 12:31:00,77.9,69.7,29.85,SW,226,1.0,3.0,76,0.00,,BKN022,0.00,VWS V14.01,2013-09-01 16:31:00,
2013-09-01 12:36:00,78.0,69.1,29.85,SW,222,8.0,9.0,74,0.00,,BKN022,0.00,VWS V14.01,2013-09-01 16:36:00,
2013-09-01 12:41:00,78.1,69.5,29.85,SW,232,2.0,5.0,75,0.00,,BKN022,0.00,VWS V14.01,2013-09-01 16:41:00,
2013-09-01 12:46:00,78.4,69.0,29.85,WSW,243,3.0,8.0,73,0.00,,SCT027,0.00,VWS V14.01,2013-09-01 16:46:00,
2013-09-01 12:51:00,78.9,69.1,29.84,SSW,208,5.0,7.0,72,0.00,,SCT027,0.00,VWS V14.01,2013-09-01 16:51:00,
2013-09-01 12:56:00,78.8,69.0,29.84,South,191,2.0,7.0,72,0.00,,SCT027,0.00,VWS V14.01,2013-09-01 16:56:00,
2013-09-01 13:01:00,79.2,69.4,29.84,South,173,4.0,4.0,72,0.00,,CLR,0.00,VWS V14.01,2013-09-01 17:01:00,
2013-09-01 13:06:00,79.9,69.7,29.84,WSW,242,8.0,8.0,71,0.00,,CLR,0.00,VWS V14.01,2013-09-01 17:06:00,
2013-09-01 13:11:00,79.7,69.5,29.84,SW,228,5.0,7.0,71,0.00,,CLR,0.00,VWS V14.01,2013-09-01 17:11:00,
2013-09-01 13:16:00,79.9,69.7,29.84,South,181,5.0,6.0,71,0.00,,CLR,0.00,VWS V14.01,2013-09-01 17:16:00,
2013-09-01 13:21:00,80.1,70.7,29.84,SSE,153,6.0,6.0,73,0.00,,CLR,0.00,VWS V14.01,2013-09-01 17:21:00,
2013-09-01 13:26:00,80.5,69.8,29.84,SW,218,2.0,6.0,70,0.00,,CLR,0.00,VWS V14.01,2013-09-01 17:26:00,
2013-09-01 13:31:00,80.7,70.4,29.84,South,190,2.0,4.0,71,0.00,,CLR,0.00,VWS V14.01,2013-09-01 17:31:00,
2013-09-01 13:36:00,81.4,70.7,29.84,West,274,2.0,3.0,70,0.00,,CLR,0.00,VWS V14.01,2013-09-01 17:36:00,
2013-09-01 13:41:00,81.2,69.2,29.84,SW,224,4.0,5.0,67,0.00,,CLR,0.00,VWS V14.01,2013-09-01 17:41:00,
2013-09-01 13:46:00,80.8,69.3,29.84,SSE,155,6.0,8.0,68,0.00,,CLR,0.00,VWS V14.01,2013-09-01 17:46:00,
2013-09-01 13:51:00,80.5,69.8,29.84,West,262,4.0,5.0,70,0.00,,CLR,0.00,VWS V14.01,2013-09-01 17:51:00,
2013-09-01 13:56:00,80.7,70.0,29.84,South,174,3.0,3.0,70,0.00,,CLR,0.00,VWS V14.01,2013-09-01 17:56:00,
2013-09-01 14:01:00,81.0,69.9,29.84,SE,139,1.0,6.0,69,0.00,,SCT028,0.00,VWS V14.01,2013-09-01 18:01:00,
2013-09-01 14:06:00,81.5,69.5,29.84,SSW,194,4.0,6.0,67,0.00,,SCT028,0.00,VWS V14.01,2013-09-01 18:06:00,
2013-09-01 14:11:00,82.2,70.2,29.84,SSW,193,6.0,6.0,67,0.00,,SCT028,0.00,VWS V14.01,2013-09-01 18:11:00,
2013-09-01 14:16:00,82.8,68.9,29.84,WSW,238,6.0,9.0,63,0.00,,SCT028,0.00,VWS V14.01,2013-09-01 18:16:00,
2013-09-01 14:21:00,82.4,69.9,29.84,WSW,253,3.0,9.0,66,0.00,,SCT028,0.00,VWS V14.01,2013-09-01 18:21:00,
2013-09-01 14:26:00,82.1,69.2,29.85,SW,218,5.0,7.0,65,0.00,,SCT028,0.00,VWS V14.01,2013-09-01 18:26:00,
2013-09-01 14:31:00,82.3,69.4,29.84,WSW,241,7.0,10.0,65,0.00,,BKN030,0.00,VWS V14.01,2013-09-01 18:31:00,
2013-09-01 14:36:00,82.2,70.6,29.84,WSW,252,2.0,5.0,68,0.00,,BKN030,0.00,VWS V14.01,2013-09-01 18:36:00,
2013-09-01 14:41:00,82.5,70.0,29.84,SW,224,8.0,8.0,66,0.00,,BKN030,0.00,VWS V14.01,2013-09-01 18:41:00,
2013-09-01 14:46:00,82.2,70.2,29.83,South,191,3.0,7.0,67,0.00,,OVC100,0.00,VWS V14.01,2013-09-01 18:46:00,
2013-09-01 14:51:00,82.3,69.4,29.83,SSE,166,6.0,6.0,65,0.00,,OVC100,0.00,VWS V14.01,2013-09-01 18:51:00,
2013-09-01 14:56:00,82.7,70.2,29.82,WSW,246,7.0,7.0,66,0.00,,OVC100,0.00,VWS V14.01,2013-09-01 18:56:00,
2013-09-01 15:01:00,82.4,69.0,29.82,SE,146,3.0,6.0,64,0.00,,BKN038,0.00,VWS V14.01,2013-09-01 19:01:00,
2013-09-01 15:06:00,82.7,68.8,29.81,South,181,5.0,8.0,63,0.00,,BKN038,0.00,VWS V14.01,2013-09-01 19:06:00,
2013-09-01 15:10:00,82.6,68.7,29.82,South,184,5.0,5.0,63,0.00,,BKN038,0.00,VWS V14.01,2013-09-01 19:10:00,
2013-09-01 15:15:00,83.0,69.6,29.82,WNW,286,0.0,4.0,64,0.00,,BKN038,0.00,VWS V14.01,2013-09-01 19:15:00,
2013-09-01 15:20:00,83.0,69.1,29.82,WSW,254,0.0,5.0,63,0.00,,BKN038,0.00,VWS V14.01,2013-09-01 19:20:00,
2013-09-01 15:25:00,83.0,69.6,29.82,SSE,152,5.0,5.0,64,0.00,,BKN038,0.00,VWS V14.01,2013-09-01 19:25:00,
2013-09-01 15:30:00,82.7,69.3,29.82,SSE,154,4.0,5.0,64,0.00,,BKN046,0.00,VWS V14.01,2013-09-01 19:30:00,
2013-09-01 15:35:00,82.7,70.2,29.81,SSW,208,4.0,6.0,66,0.00,,BKN046,0.00,VWS V14.01,2013-09-01 19:35:00,
2013-09-01 15:40:00,82.9,70.4,29.81,SW,218,6.0,6.0,66,0.00,,BKN046,0.00,VWS V14.01,2013-09-01 19:40:00,
2013-09-01 15:45:00,83.0,69.6,29.81,WSW,241,3.0,7.0,64,0.00,,SCT046,0.00,VWS V14.01,2013-09-01 19:45:00,
2013-09-01 15:50:00,83.3,69.9,29.81,West,276,5.0,8.0,64,0.00,,SCT046,0.00,VWS V14.01,2013-09-01 19:50:00,
2013-09-01 15:55:00,83.3,69.9,29.81,SSW,203,1.0,6.0,64,0.00,,SCT046,0.00,VWS V14.01,2013-09-01 19:55:00,
2013-09-01 16:00:00,83.5,69.6,29.81,South,191,1.0,6.0,63,0.00,,SCT037,0.00,VWS V14.01,2013-09-01 20:00:00,
2013-09-01 16:05:00,83.9,70.0,29.81,SSW,195,1.0,7.0,63,0.00,,SCT037,0.00,VWS V14.01,2013-09-01 20:05:00,
2013-09-01 16:10:00,84.4,70.0,29.81,SSW,205,4.0,7.0,62,0.00,,SCT037,0.00,VWS V14.01,2013-09-01 20:10:00,
2013-09-01 16:15:00,84.1,69.7,29.80,WSW,245,4.0,6.0,62,0.00,,SCT037,0.00,VWS V14.01,2013-09-01 20:15:00,
2013-09-01 16:20:00,83.8,69.9,29.80,South,177,2.0,5.0,63,0.00,,SCT037,0.00,VWS V14.01,2013-09-01 20:20:00,
2013-09-01 16:25:00,83.9,70.0,29.80,SSE,153,3.0,5.0,63,0.00,,SCT037,0.00,VWS V14.01,2013-09-01 20:25:00,
2013-09-01 16:30:00,83.6,70.1,29.80,South,172,2.0,2.0,64,0.00,,BKN060,0.00,VWS V14.01,2013-09-01 20:30:00,
2013-09-01 16:35:00,83.8,69.9,29.80,South,172,10.0,10.0,63,0.00,,BKN060,0.00,VWS V14.01,2013-09-01 20:35:00,
2013-09-01 16:40:00,84.0,70.1,29.80,SW,214,6.0,8.0,63,0.00,,BKN060,0.00,VWS V14.01,2013-09-01 20:40:00,
2013-09-01 16:45:00,84.1,70.6,29.79,WNW,300,3.0,7.0,64,0.00,,SCT060,0.00,VWS V14.01,2013-09-01 20:45:00,
2013-09-01 16:50:00,84.1,70.2,29.79,SW,226,4.0,8.0,63,0.00,,SCT060,0.00,VWS V14.01,2013-09-01 20:50:00,
2013-09-01 16:55:00,83.7,70.2,29.80,SSW,203,3.0,7.0,64,0.00,,SCT060,0.00,VWS V14.01,2013-09-01 20:55:00,
2013-09-01 17:00:00,83.4,70.4,29.79,SW,226,2.0,7.0,65,0.00,,BKN046,0.00,VWS V14.01,2013-09-01 21:00:00,
2013-09-01 17:05:00,84.0,70.5,29.79,South,191,5.0,8.0,64,0.00,,BKN046,0.00,VWS V14.01,2013-09-01 21:05:00,
2013-09-01 17:10:00,84.2,70.2,29.79,WSW,239,2.0,8.0,63,0.00,,BKN046,0.00,VWS V14.01,2013-09-01 21:10:00,
2013-09-01 17:15:00,84.3,70.3,29.79,South,183,6.0,7.0,63,0.00,,BKN046,0.00,VWS V14.01,2013-09-01 21:15:00,
2013-09-01 17:20:00,84.6,71.1,29.78,SW,234,0.0,3.0,64,0.00,,BKN046,0.00,VWS V14.01,2013-09-01 21:20:00,
2013-09-01 17:25:00,84.8,71.3,29.78,WSW,239,1.0,4.0,64,0.00,,BKN046,0.00,VWS V14.01,2013-09-01 21:25:00,
2013-09-01 17:30:00,84.5,70.1,29.78,SSW,200,2.0,5.0,62,0.00,,BKN050,0.00,VWS V14.01,2013-09-01 21:30:00,
2013-09-01 17:35:00,83.9,70.4,29.78,SW,219,4.0,7.0,64,0.00,,BKN050,0.00,VWS V14.01,2013-09-01 21:35:00,
2013-09-01 17:40:00,84.2,71.2,29.78,SSE,161,2.0,4.0,65,0.00,,BKN050,0.00,VWS V14.01,2013-09-01 21:40:00,
2013-09-01 17:45:00,84.0,70.1,29.78,SW,217,3.0,5.0,63,0.00,,SCT050,0.00,VWS V14.01,2013-09-01 21:45:00,
2013-09-01 17:50:00,83.6,70.1,29.78,South,188,1.0,3.0,64,0.00,,SCT050,0.00,VWS V14.01,2013-09-01 21:50:00,
2013-09-01 17:55:00,83.7,69.8,29.78,SW,217,3.0,5.0,63,0.00,,SCT050,0.00,VWS V14.01,2013-09-01 21:55:00,
2013-09-01 18:00:00,83.8,70.3,29.78,SSW,198,6.0,8.0,64,0.00,,SCT060,0.00,VWS V14.01,2013-09-01 22:00:00,
2013-09-01 18:05:00,83.3,68.9,29.78,SSW,210,5.0,8.0,62,0.00,,SCT060,0.00,VWS V14.01,2013-09-01 22:05:00,
2013-09-01 18:10:00,83.1,69.7,29.78,SSW,201,2.0,4.0,64,0.00,,SCT060,0.00,VWS V14.01,2013-09-01 22:10:00,
2013-09-01 18:15:00,83.2,69.8,29.78,SW,217,4.0,4.0,64,0.00,,SCT060,0.00,VWS V14.01,2013-09-01 22:15:00,
2013-09-01 18:20:00,83.4,69.9,29.78,SSW,198,1.0,3.0,64,0.00,,SCT060,0.00,VWS V14.01,2013-09-01 22:20:00,
2013-09-01 18:25:00,83.9,70.4,29.78,South,174,5.0,5.0,64,0.00,,SCT060,0.00,VWS V14.01,2013-09-01 22:25:00,
2013-09-01 18:30:00,84.0,70.1,29.78,South,179,2.0,6.0,63,0.00,,BKN060,0.00,VWS V14.01,2013-09-01 22:30:00,
2013-09-01 18:35:00,84.1,70.2,29.78,SSE,158,3.0,3.0,63,0.00,,BKN060,0.00,VWS V14.01,2013-09-01 22:35:00,
2013-09-01 18:40:00,84.1,69.7,29.78,SSW,201,3.0,5.0,62,0.00,,BKN060,0.00,VWS V14.01,2013-09-01 22:40:00,
2013-09-01 18:45:00,83.9,69.5,29.78,SSE,160,4.0,6.0,62,0.00,,SCT060,0.00,VWS V14.01,2013-09-01 22:45:00,
2013-09-01 18:50:00,83.6,69.7,29.77,South,183,5.0,5.0,63,0.00,,SCT060,0.00,VWS V14.01,2013-09-01 22:50:00,
2013-09-01 18:55:00,83.2,69.8,29.78,West,277,2.0,5.0,64,0.00,,SCT060,0.00,VWS V14.01,2013-09-01 22:55:00,
2013-09-01 19:00:00,83.2,69.8,29.78,SSE,167,2.0,5.0,64,0.00,,SCT045,0.00,VWS V14.01,2013-09-01 23:00:00,
2013-09-01 19:05:00,83.1,69.7,29.78,SW,218,2.0,7.0,64,0.00,,SCT045,0.00,VWS V14.01,2013-09-01 23:05:00,
2013-09-01 19:10:00,83.1,69.7,29.78,SSW,203,4.0,4.0,64,0.00,,SCT045,0.00,VWS V14.01,2013-09-01 23:10:00,
2013-09-01 19:15:00,83.0,70.0,29.78,SW,221,6.0,6.0,65,0.00,,SCT045,0.00,VWS V14.01,2013-09-01 23:15:00,
2013-09-01 19:20:00,82.7,70.2,29.79,SW,224,2.0,3.0,66,0.00,,SCT045,0.00,VWS V14.01,2013-09-01 23:20:00,
2013-09-01 19:25:00,82.3,70.3,29.79,SSW,212,4.0,5.0,67,0.00,,SCT045,0.00,VWS V14.01,2013-09-01 23:25:00,
2013-09-01 19:30:00,81.8,69.8,29.79,SSW,196,3.0,6.0,67,0.00,,SCT049,0.00,VWS V14.01,2013-09-01 23:30:00,
2013-09-01 19:35:00,81.5,69.9,29.79,WSW,253,4.0,5.0,68,0.00,,SCT049,0.00,VWS V14.01,2013-09-01 23:35:00,
2013-09-01 19:40:00,81.3,70.2,29.79,SSE,167,2.0,3.0,69,0.00,,SCT049,0.00,VWS V14.01,2013-09-01 23:40:00,
2013-09-01 19:45:00,81.0,70.3,29.79,SSW,203,3.0,4.0,70,0.00,,BKN047,0.00,VWS V14.01,2013-09-01 23:45:00,
2013-09-01 19:50:00,80.7,70.0,29.79,SSW,205,2.0,3.0,70,0.00,,BKN047,0.00,VWS V14.01,2013-09-01 23:50:00,
2013-09-01 19:55:00,80.4,70.1,29.80,South,181,3.0,4.0,71,0.00,,BKN047,0.00,VWS V14.01,2013-09-01 23:55:00,
2013-09-01 20:00:00,80.1,70.3,29.80,West,262,2.0,4.0,72,0.00,,OVC050,0.00,VWS V14.01,2013-09-02 00:00:00,
2013-09-01 20:05:00,79.9,70.1,29.80,SW,224,6.0,6.0,72,0.00,,OVC050,0.00,VWS V14.01,2013-09-02 00:05:00,
2013-09-01 20:10:00,79.7,69.9,29.80,SSW,204,5.0,7.0,72,0.00,,OVC050,0.00,VWS V14.01,2013-09-02 00:10:00,
2013-09-01 20:15:00,79.6,69.8,29.80,SW,217,5.0,8.0,72,0.00,,OVC050,0.00,VWS V14.01,2013-09-02 00:15:00,
2013-09-01 20:20:00,79.4,70.0,29.80,SSW,200,3.0,5.0,73,0.00,,OVC050,0.00,VWS V14.01,2013-09-02 00:20:00,
2013-09-01 20:25:00,79.3,69.9,29.80,SSE,158,3.0,4.0,73,0.00,,OVC050,0.00,VWS V14.01,2013-09-02 00:25:00,
2013-09-01 20:30:00,79.0,70.0,29.80,South,183,2.0,4.0,74,0.00,,BKN050,0.00,VWS V14.01,2013-09-02 00:30:00,
2013-09-01 20:35:00,78.7,70.1,29.80,SSW,203,0.0,5.0,75,0.00,,BKN050,0.00,VWS V14.01,2013-09-02 00:35:00,
2013-09-01 20:40:00,78.5,69.9,29.80,WSW,240,0.0,2.0,75,0.00,,BKN050,0.00,VWS V14.01,2013-09-02 00:40:00,
2013-09-01 20:45:00,78.3,70.1,29.80,SSW,208,1.0,3.0,76,0.00,,BKN050,0.00,VWS V14.01,2013-09-02 00:45:00,
2013-09-01 20:50:00,78.1,69.9,29.80,SSE,152,0.0,2.0,76,0.00,,SCT065,0.00,VWS V14.01,2013-09-02 00:50:00,
2013-09-01 20:55:00,77.9,70.1,29.80,SSW,207,0.0,2.0,77,0.00,,SCT065,0.00,VWS V14.01,2013-09-02 00:55:00,
2013-09-01 21:00:00,77.7,69.9,29.81,SW,229,2.0,4.0,77,0.00,,SCT065,0.00,VWS V14.01,2013-09-02 01:00:00,
2013-09-01 21:05:00,77.5,70.1,29.81,SSW,210,0.0,0.0,78,0.00,,CLR,0.00,VWS V14.01,2013-09-02 01:05:00,
2013-09-01 21:10:00,77.3,69.9,29.81,SW,217,0.0,1.0,78,0.00,,CLR,0.00,VWS V14.01,2013-09-02 01:10:00,
2013-09-01 21:15:00,77.1,70.1,29.81,SSE,158,0.0,0.0,79,0.00,,CLR,0.00,VWS V14.01,2013-09-02 01:15:00,
2013-09-01 21:20:00,76.9,69.9,29.81,SSW,192,1.0,1.0,79,0.00,,CLR,0.00,VWS V14.01,2013-09-02 01:20:00,
2013-09-01 21:25:00,76.6,70.0,29.81,SSW,197,2.0,2.0,80,0.00,,CLR,0.00,VWS V14.01,2013-09-02 01:25:00,
2013-09-01 21:30:00,76.4,69.8,29.81,SSW,204,0.0,0.0,80,0.00,,CLR,0.00,VWS V14.01,2013-09-02 01:30:00,
2013-09-01 21:35:00,76.3,69.7,29.81,South,185,0.0,1.0,80,0.00,,CLR,0.00,VWS V14.01,2013-09-02 01:35:00,
2013-09-01 21:40:00,76.2,69.6,29.81,SSW,212,0.0,2.0,80,0.00,,CLR,0.00,VWS V14.01,2013-09-02 01:40:00,
2013-09-01 21:45:00,76.1,69.8,29.82,SSW,212,0.0,3.0,81,0.00,,CLR,0.00,VWS V14.01,2013-09-02 01:45:00,
2013-09-01 21:50:00,76.0,69.8,29.82,SSE,151,1.0,1.0,81,0.00,,CLR,0.00,VWS V14.01,2013-09-02 01:50:00,
2013-09-01 21:55:00,75.7,69.5,29.82,SE,141,0.0,2.0,81,0.00,,CLR,0.00,VWS V14.01,2013-09-02 01:55:00,
2013-09-01 22:00:00,75.4,69.5,29.81,South,186,0.0,1.0,82,0.00,,CLR,0.00,VWS V14.01,2013-09-02 02:00:00,
2013-09-01 22:05:00,75.3,69.4,29.82,South,184,0.0,0.0,82,0.00,,CLR,0.00,VWS V14.01,2013-09-02 02:05:00,
2013-09-01 22:10:00,75.1,69.6,29.82,South,181,1.0,1.0,83,0.00,,CLR,0.00,VWS V14.01,2013-09-02 02:10:00,
2013-09-01 22:15:00,75.1,69.6,29.82,SSW,204,0.0,0.0,83,0.00,,CLR,0.00,VWS V14.01,2013-09-02 02:15:00,
2013-09-01 22:20:00,75.0,69.5,29.82,SSW,195,0.0,0.0,83,0.00,,CLR,0.00,VWS V14.01,2013-09-02 02:20:00,
2013-09-01 22:25:00,74.9,69.4,29.82,SSW,210,0.0,0.0,83,0.00,,CLR,0.00,VWS V14.01,2013-09-02 02:25:00,
2013-09-01 22:30:00,74.9,69.4,29.82,SSW,203,0.0,1.0,83,0.00,,CLR,0.00,VWS V14.01,2013-09-02 02:30:00,
2013-09-01 22:35:00,74.9,69.4,29.83,South,174,0.0,2.0,83,0.00,,CLR,0.00,VWS V14.01,2013-09-02 02:35:00,
2013-09-01 22:40:00,74.9,69.4,29.83,SSW,208,0.0,1.0,83,0.00,,CLR,0.00,VWS V14.01,2013-09-02 02:40:00,
2013-09-01 22:45:00,75.0,69.5,29.83,SSW,203,0.0,0.0,83,0.00,,CLR,0.00,VWS V14.01,2013-09-02 02:45:00,
2013-09-01 22:50:00,75.0,69.5,29.83,SSW,203,0.0,0.0,83,0.00,,CLR,0.00,VWS V14.01,2013-09-02 02:50:00,
2013-09-01 22:55:00,74.9,69.4,29.82,SSW,203,0.0,0.0,83,0.00,,CLR,0.00,VWS V14.01,2013-09-02 02:55:00,
2013-09-01 23:00:00,75.0,69.5,29.83,SSW,212,0.0,0.0,83,0.00,,CLR,0.00,VWS V14.01,2013-09-02 03:00:00,
2013-09-01 23:05:00,75.0,69.5,29.82,SSW,201,0.0,0.0,83,0.00,,SCT038,0.00,VWS V14.01,2013-09-02 03:05:00,
2013-09-01 23:10:00,74.9,69.4,29.82,SSW,195,0.0,0.0,83,0.00,,SCT038,0.00,VWS V14.01,2013-09-02 03:10:00,
2013-09-01 23:15:00,74.7,69.6,29.82,SSE,159,0.0,1.0,84,0.00,,SCT038,0.00,VWS V14.01,2013-09-02 03:15:00,
2013-09-01 23:20:00,74.5,69.3,29.82,SSW,203,1.0,1.0,84,0.00,,SCT038,0.00,VWS V14.01,2013-09-02 03:20:00,
2013-09-01 23:25:00,74.4,69.3,29.82,SSW,195,2.0,2.0,84,0.00,,SCT038,0.00,VWS V14.01,2013-09-02 03:25:00,
2013-09-01 23:30:00,74.4,69.3,29.83,South,187,0.0,1.0,84,0.00,,SCT038,0.00,VWS V14.01,2013-09-02 03:30:00,
2013-09-01 23:35:00,74.3,69.5,29.82,WSW,240,2.0,3.0,85,0.00,,SCT060,0.00,VWS V14.01,2013-09-02 03:35:00,
2013-09-01 23:40:00,74.3,69.5,29.83,WSW,241,0.0,2.0,85,0.00,,SCT060,0.00,VWS V14.01,2013-09-02 03:40:00,
2013-09-01 23:45:00,74.3,69.5,29.82,SW,218,0.0,3.0,85,0.00,,SCT060,0.00,VWS V14.01,2013-09-02 03:45:00,
2013-09-01 23:50:00,74.3,69.5,29.82,SW,219,1.0,4.0,85,0.00,,CLR,0.00,VWS V14.01,2013-09-02 03:50:00,
2013-09-01 23:55:00,74.3,69.5,29.82,SW,217,1.0,3.0,85,0.00,,CLR,0.00,VWS V14.01,2013-09-02 03:55:00,